Time;durP1;ratioP1;P1;durP2;ratioP2;P2;SDS_P1;SDS_P2;PMS_P1;PMS_P2;Temp;Humidity;BMP_temperature;BMP_pressure;BME280_temperature;BME280_humidity;BME280_pressure;Samples;Min_cycle;Max_cycle;Signal;HPM_P1;HPM_P2
2022/12/24 00:00:02;;;;;;;;;;;;;;;;;;4924194;28;20213;-65
2022/12/24 00:02:27;;;;;;;;;;;;;;;;;;4990320;28;20417;-66
2022/12/24 00:04:52;;;;;;;;;;;;;;;;;;4908108;28;20373;-66
2022/12/24 00:07:17;;;;;;;;;;;;;;;;;;4991759;28;20236;-65
2022/12/24 00:09:43;;;;;;;;;;;;;;;;;;4924705;28;20291;-66
2022/12/24 00:12:10;;;;;;;;;;;;;;;;;;4916666;28;20380;-65
2022/12/24 00:14:36;;;;;;;;;;;;;;;;;;4925053;28;19930;-66
2022/12/24 00:17:01;;;;;;;;;;;;;;;;;;4991806;28;19923;-67
2022/12/24 00:19:27;;;;;;;;;;;;;;;;;;4923852;28;19926;-66
2022/12/24 00:21:52;;;;;;;;;;;;;;;;;;4992212;28;19965;-67
2022/12/24 00:24:17;;;;;;;;;;;;;;;;;;4973947;28;20083;-67
2022/12/24 00:26:43;;;;;;;;;;;;;;;;;;4986924;28;20469;-65
2022/12/24 00:29:08;;;;;;;;;;;;;;;;;;4907370;28;19918;-67
2022/12/24 00:31:38;;;;;;;;;;;;;;;;;;4984847;28;20036;-66
2022/12/24 00:34:09;;;;;;;;;;;;;;;;;;4922355;28;20022;-66
2022/12/24 00:36:35;;;;;;;;;;;;;;;;;;4922902;28;19929;-66
2022/12/24 00:39:02;;;;;;;;;;;;;;;;;;4924490;28;19919;-66
2022/12/24 00:41:28;;;;;;;;;;;;;;;;;;4919856;28;19929;-67
2022/12/24 00:43:54;;;;;;;;;;;;;;;;;;4915655;28;20917;-65
2022/12/24 00:46:19;;;;;;;;;;;;;;;;;;4922785;28;20009;-65
2022/12/24 00:48:47;;;;;;;;;;;;;;;;;;4906194;28;21064;-66
2022/12/24 00:51:13;;;;;;;;;;;;;;;;;;4924794;28;19934;-67
2022/12/24 00:53:38;;;;;;;;;;;;;;;;;;4924419;28;20419;-66
2022/12/24 00:56:06;;;;;;;;;;;;;;;;;;4921968;28;21491;-66
2022/12/24 00:58:36;;;;;;;;;;;;;;;;;;4923230;28;19931;-65
2022/12/24 01:01:02;;;;;;;;;;;;;;;;;;4918999;28;19953;-65
2022/12/24 01:03:36;;;;;;;;;;;;;;;;;;4924403;28;19925;-66
2022/12/24 01:06:03;;;;;;;;;;;;;;;;;;4907989;28;19918;-65
2022/12/24 01:08:28;;;;;;;;;;;;;;;;;;4908520;28;19953;-65
2022/12/24 01:10:57;;;;;;;;;;;;;;;;;;4915631;28;19958;-65
2022/12/24 01:13:25;;;;;;;;;;;;;;;;;;4923156;28;20041;-65
2022/12/24 01:15:55;;;;;;;;;;;;;;;;;;4924096;28;19922;-65
2022/12/24 01:18:21;;;;;;;;;;;;;;;;;;4920762;28;19930;-65
2022/12/24 01:20:49;;;;;;;;;;;;;;;;;;4910480;28;21150;-65
2022/12/24 01:23:17;;;;;;;;;;;;;;;;;;4922893;28;21432;-65
2022/12/24 01:25:42;;;;;;;;;;;;;;;;;;4923663;28;19919;-65
2022/12/24 01:28:07;;;;;;;;;;;;;;;;;;4923372;28;19923;-66
2022/12/24 01:30:35;;;;;;;;;;;;;;;;;;4921168;28;20439;-67
2022/12/24 01:33:00;;;;;;;;;;;;;;;;;;4917618;28;20451;-67
2022/12/24 01:35:25;;;;;;;;;;;;;;;;;;4905105;28;19930;-65
2022/12/24 01:37:51;;;;;;;;;;;;;;;;;;4901402;28;20401;-65
2022/12/24 01:45:47;;;;;;;;;;;;;;;;;;4907136;28;19926;-65
2022/12/24 01:48:16;;;;;;;;;;;;;;;;;;4982299;28;19919;-64
2022/12/24 01:50:42;;;;;;;;;;;;;;;;;;4917440;28;19922;-65
2022/12/24 01:53:09;;;;;;;;;;;;;;;;;;4905556;28;19923;-64
2022/12/24 01:55:38;;;;;;;;;;;;;;;;;;4913574;28;19945;-63
2022/12/24 01:58:10;;;;;;;;;;;;;;;;;;4984914;28;19938;-64
2022/12/24 02:00:35;;;;;;;;;;;;;;;;;;4902886;28;19923;-64
2022/12/24 02:03:00;;;;;;;;;;;;;;;;;;4909486;28;20004;-64
2022/12/24 02:05:25;;;;;;;;;;;;;;;;;;4913079;28;19919;-64
2022/12/24 02:07:55;;;;;;;;;;;;;;;;;;4982826;28;21675;-64
2022/12/24 02:10:23;;;;;;;;;;;;;;;;;;4903954;28;19925;-64
2022/12/24 02:12:51;;;;;;;;;;;;;;;;;;4909679;28;19970;-66
2022/12/24 02:15:18;;;;;;;;;;;;;;;;;;4903039;28;20547;-65
2022/12/24 02:17:46;;;;;;;;;;;;;;;;;;4916877;28;19982;-64
2022/12/24 02:20:12;;;;;;;;;;;;;;;;;;4901642;29;19923;-65
2022/12/24 02:22:39;;;;;;;;;;;;;;;;;;4914396;28;20475;-67
2022/12/24 02:25:05;;;;;;;;;;;;;;;;;;4905259;28;20003;-64
2022/12/24 02:27:30;;;;;;;;;;;;;;;;;;4902221;28;20093;-66
2022/12/24 02:29:59;;;;;;;;;;;;;;;;;;4908571;28;21209;-66
2022/12/24 02:32:24;;;;;;;;;;;;;;;;;;4899736;28;20103;-66
2022/12/24 02:34:52;;;;;;;;;;;;;;;;;;4906585;28;20385;-65
2022/12/24 02:37:18;;;;;;;;;;;;;;;;;;4922942;28;19930;-65
2022/12/24 02:39:48;;;;;;;;;;;;;;;;;;4922764;28;19922;-66
2022/12/24 02:42:13;;;;;;;;;;;;;;;;;;4921854;28;21548;-65
2022/12/24 02:44:39;;;;;;;;;;;;;;;;;;4908003;28;19918;-65
2022/12/24 02:47:04;;;;;;;;;;;;;;;;;;4921829;28;21459;-66
2022/12/24 02:49:29;;;;;;;;;;;;;;;;;;4920881;28;20119;-65
2022/12/24 02:51:57;;;;;;;;;;;;;;;;;;4923511;28;19922;-66
2022/12/24 02:54:23;;;;;;;;;;;;;;;;;;4903516;28;20408;-64
2022/12/24 02:56:51;;;;;;;;;;;;;;;;;;4918890;28;19925;-66
2022/12/24 02:59:16;;;;;;;;;;;;;;;;;;4920709;28;19919;-66
2022/12/24 03:01:44;;;;;;;;;;;;;;;;;;4915544;28;19922;-66
2022/12/24 03:04:09;;;;;;;;;;;;;;;;;;4906240;28;19988;-65
2022/12/24 03:06:35;;;;;;;;;;;;;;;;;;4921331;28;20668;-65
2022/12/24 03:09:04;;;;;;;;;;;;;;;;;;4921735;28;19919;-65
2022/12/24 03:11:33;;;;;;;;;;;;;;;;;;4917117;28;19923;-65
2022/12/24 03:14:01;;;;;;;;;;;;;;;;;;4907492;28;20390;-64
2022/12/24 03:16:26;;;;;;;;;;;;;;;;;;4921333;28;19923;-65
2022/12/24 03:18:54;;;;;;;;;;;;;;;;;;4919674;28;20274;-65
2022/12/24 03:21:23;;;;;;;;;;;;;;;;;;4918980;28;19919;-65
2022/12/24 03:23:51;;;;;;;;;;;;;;;;;;4909339;28;19927;-65
2022/12/24 03:26:19;;;;;;;;;;;;;;;;;;4912042;28;19934;-65
2022/12/24 03:28:44;;;;;;;;;;;;;;;;;;4924979;28;20390;-65
2022/12/24 03:31:10;;;;;;;;;;;;;;;;;;4906976;28;20038;-65
2022/12/24 03:33:38;;;;;;;;;;;;;;;;;;4904241;28;19923;-65
2022/12/24 03:36:06;;;;;;;;;;;;;;;;;;4918648;28;19930;-67
2022/12/24 03:38:31;;;;;;;;;;;;;;;;;;4913447;28;19954;-66
2022/12/24 03:40:57;;;;;;;;;;;;;;;;;;4905719;28;20374;-67
2022/12/24 03:43:22;;;;;;;;;;;;;;;;;;4912949;28;19923;-66
2022/12/24 03:45:48;;;;;;;;;;;;;;;;;;4985608;28;20763;-69
2022/12/24 03:48:13;;;;;;;;;;;;;;;;;;4906246;28;19927;-66
2022/12/24 03:50:39;;;;;;;;;;;;;;;;;;4901630;28;21947;-67
2022/12/24 03:53:04;;;;;;;;;;;;;;;;;;4904798;28;20010;-68
2022/12/24 03:55:32;;;;;;;;;;;;;;;;;;4905027;28;20378;-68
2022/12/24 03:57:58;;;;;;;;;;;;;;;;;;4913372;28;19937;-68
2022/12/24 04:00:23;;;;;;;;;;;;;;;;;;4904720;28;19922;-69
2022/12/24 04:02:48;;;;;;;;;;;;;;;;;;4920138;28;21399;-67
2022/12/24 04:05:14;;;;;;;;;;;;;;;;;;4903349;28;19950;-69
2022/12/24 04:07:42;;;;;;;;;;;;;;;;;;4904821;28;19934;-68
2022/12/24 04:10:09;;;;;;;;;;;;;;;;;;4912701;28;19919;-69
2022/12/24 04:12:39;;;;;;;;;;;;;;;;;;4904822;28;19922;-67
2022/12/24 04:15:05;;;;;;;;;;;;;;;;;;4903046;28;20321;-67
2022/12/24 04:17:30;;;;;;;;;;;;;;;;;;4904090;28;19922;-69
2022/12/24 04:20:00;;;;;;;;;;;;;;;;;;4897374;28;19919;-68
2022/12/24 04:22:25;;;;;;;;;;;;;;;;;;4904351;28;19927;-71
2022/12/24 04:24:55;;;;;;;;;;;;;;;;;;4906435;28;20020;-72
2022/12/24 04:27:26;;;;;;;;;;;;;;;;;;4904510;28;20393;-69
2022/12/24 04:29:56;;;;;;;;;;;;;;;;;;4904685;28;19924;-69
2022/12/24 04:32:24;;;;;;;;;;;;;;;;;;4915162;28;19938;-71
2022/12/24 04:34:50;;;;;;;;;;;;;;;;;;4925066;28;19945;-67
2022/12/24 04:37:18;;;;;;;;;;;;;;;;;;4974081;28;20189;-67
2022/12/24 04:39:46;;;;;;;;;;;;;;;;;;4910681;28;19929;-68
2022/12/24 04:42:14;;;;;;;;;;;;;;;;;;4912065;28;19927;-69
2022/12/24 04:44:39;;;;;;;;;;;;;;;;;;4924572;28;19926;-69
2022/12/24 04:47:04;;;;;;;;;;;;;;;;;;4907190;28;20227;-69
2022/12/24 04:49:32;;;;;;;;;;;;;;;;;;4973986;28;19927;-71
2022/12/24 04:51:59;;;;;;;;;;;;;;;;;;4909700;28;20048;-70
2022/12/24 04:54:27;;;;;;;;;;;;;;;;;;4923188;28;19930;-69
2022/12/24 04:56:55;;;;;;;;;;;;;;;;;;4911834;28;20278;-65
2022/12/24 04:59:20;;;;;;;;;;;;;;;;;;4921616;28;19953;-68
2022/12/24 05:01:46;;;;;;;;;;;;;;;;;;4923866;28;19919;-71
2022/12/24 05:04:14;;;;;;;;;;;;;;;;;;4923484;28;20041;-65
2022/12/24 05:06:41;;;;;;;;;;;;;;;;;;4925970;28;20828;-71
2022/12/24 05:09:09;;;;;;;;;;;;;;;;;;4924303;28;19922;-68
2022/12/24 05:11:34;;;;;;;;;;;;;;;;;;4917511;28;19930;-68
2022/12/24 05:14:03;;;;;;;;;;;;;;;;;;4923907;28;20003;-71
2022/12/24 05:16:29;;;;;;;;;;;;;;;;;;4978325;28;19919;-70
2022/12/24 05:18:57;;;;;;;;;;;;;;;;;;4910101;28;20467;-70
2022/12/24 05:21:23;;;;;;;;;;;;;;;;;;4979785;28;20017;-72
2022/12/24 05:26:35;;;;;;;;;;;;;;;;;;4922483;28;19926;-71
2022/12/24 05:29:03;;;;;;;;;;;;;;;;;;4917770;28;19922;-70
2022/12/24 05:31:28;;;;;;;;;;;;;;;;;;4896486;28;20394;-70
2022/12/24 05:33:56;;;;;;;;;;;;;;;;;;4991907;28;19969;-69
2022/12/24 05:36:24;;;;;;;;;;;;;;;;;;4919401;28;20350;-72
2022/12/24 05:38:50;;;;;;;;;;;;;;;;;;4922415;28;20536;-70
2022/12/24 05:41:16;;;;;;;;;;;;;;;;;;4922042;28;19938;-71
2022/12/24 05:43:41;;;;;;;;;;;;;;;;;;4924885;28;19918;-70
2022/12/24 05:46:07;;;;;;;;;;;;;;;;;;4924201;28;20009;-69
2022/12/24 05:48:32;;;;;;;;;;;;;;;;;;4904421;28;20000;-70
2022/12/24 05:50:58;;;;;;;;;;;;;;;;;;4924978;28;19922;-70
2022/12/24 05:53:23;;;;;;;;;;;;;;;;;;4921526;28;20548;-68
2022/12/24 05:55:51;;;;;;;;;;;;;;;;;;4922122;28;19919;-70
2022/12/24 05:58:19;;;;;;;;;;;;;;;;;;4924267;28;20397;-69
2022/12/24 06:00:45;;;;;;;;;;;;;;;;;;4923336;28;20285;-69
2022/12/24 06:03:10;;;;;;;;;;;;;;;;;;4907146;28;20354;-69
2022/12/24 06:05:40;;;;;;;;;;;;;;;;;;4907901;28;20479;-70
2022/12/24 06:08:05;;;;;;;;;;;;;;;;;;4923597;28;20630;-69
2022/12/24 06:10:30;;;;;;;;;;;;;;;;;;4907959;28;19934;-70
2022/12/24 06:12:56;;;;;;;;;;;;;;;;;;4923253;28;19926;-68
2022/12/24 06:15:23;;;;;;;;;;;;;;;;;;4900402;28;19918;-68
2022/12/24 06:17:49;;;;;;;;;;;;;;;;;;4925213;28;20079;-68
2022/12/24 06:20:16;;;;;;;;;;;;;;;;;;4922307;28;20189;-68
2022/12/24 06:22:44;;;;;;;;;;;;;;;;;;4908513;28;20352;-69
2022/12/24 06:25:09;;;;;;;;;;;;;;;;;;4923314;28;20353;-70
2022/12/24 06:27:34;;;;;;;;;;;;;;;;;;4915971;28;19927;-66
2022/12/24 06:30:00;;;;;;;;;;;;;;;;;;4901088;28;20511;-68
2022/12/24 06:32:25;;;;;;;;;;;;;;;;;;4901607;28;19934;-68
2022/12/24 06:34:55;;;;;;;;;;;;;;;;;;4905463;28;19934;-67
2022/12/24 06:37:23;;;;;;;;;;;;;;;;;;4906054;28;20232;-68
2022/12/24 06:39:50;;;;;;;;;;;;;;;;;;4905573;28;20296;-67
2022/12/24 06:42:16;;;;;;;;;;;;;;;;;;4918401;28;19923;-71
2022/12/24 06:44:41;;;;;;;;;;;;;;;;;;4913649;28;20440;-67
2022/12/24 06:47:08;;;;;;;;;;;;;;;;;;4903519;28;19964;-68
2022/12/24 06:49:37;;;;;;;;;;;;;;;;;;4901823;28;19923;-69
2022/12/24 06:52:02;;;;;;;;;;;;;;;;;;4898737;28;20009;-68
2022/12/24 06:54:28;;;;;;;;;;;;;;;;;;4911162;28;19926;-68
2022/12/24 06:56:55;;;;;;;;;;;;;;;;;;4917286;28;20022;-68
2022/12/24 06:59:23;;;;;;;;;;;;;;;;;;4984088;28;20341;-70
2022/12/24 07:01:49;;;;;;;;;;;;;;;;;;4984003;28;19938;-70
2022/12/24 07:04:14;;;;;;;;;;;;;;;;;;4903770;28;19951;-68
2022/12/24 07:06:45;;;;;;;;;;;;;;;;;;4968954;28;19919;-70
2022/12/24 07:09:10;;;;;;;;;;;;;;;;;;4899640;28;20128;-68
2022/12/24 07:11:36;;;;;;;;;;;;;;;;;;4917816;28;20187;-67
2022/12/24 07:14:01;;;;;;;;;;;;;;;;;;4982781;28;19922;-69
2022/12/24 07:16:26;;;;;;;;;;;;;;;;;;4899391;28;19930;-69
2022/12/24 07:18:52;;;;;;;;;;;;;;;;;;4899479;28;20028;-68
2022/12/24 07:21:17;;;;;;;;;;;;;;;;;;4909482;28;20090;-69
2022/12/24 07:23:53;;;;;;;;;;;;;;;;;;4904590;28;19936;-68
2022/12/24 07:26:44;;;;;;;;;;;;;;;;;;4899686;28;19937;-67
2022/12/24 07:29:11;;;;;;;;;;;;;;;;;;4986481;28;19921;-69
2022/12/24 07:31:37;;;;;;;;;;;;;;;;;;4906179;28;19930;-66
2022/12/24 07:34:09;;;;;;;;;;;;;;;;;;4968197;28;19945;-68
2022/12/24 07:36:34;;;;;;;;;;;;;;;;;;4927468;28;20262;-71
2022/12/24 07:39:18;;;;;;;;;;;;;;;;;;4914275;28;19927;-68
2022/12/24 07:41:53;;;;;;;;;;;;;;;;;;4988016;28;20650;-68
2022/12/24 07:44:22;;;;;;;;;;;;;;;;;;4919659;28;19923;-69
2022/12/24 07:47:04;;;;;;;;;;;;;;;;;;4990836;28;19919;-71
2022/12/24 07:49:40;;;;;;;;;;;;;;;;;;;;;
2022/12/24 07:52:25;;;;;;;;;;;;;;;;;;4984070;28;20433;-69
2022/12/24 07:54:56;;;;;;;;;;;;;;;;;;4922002;28;21778;-69
2022/12/24 07:57:33;;;;;;;;;;;;;;;;;;4974117;28;19930;-67
2022/12/24 08:00:02;;;;;;;;;;;;;;;;;;4984328;28;20152;-68
2022/12/24 08:05:57;;;;;;;;;;;;;;;;;;;;;
2022/12/24 08:08:27;;;;;;;;;;;;;;;;;;4924122;28;20445;-68
2022/12/24 08:10:55;;;;;;;;;;;;;;;;;;4909467;28;19929;-69
2022/12/24 08:13:23;;;;;;;;;;;;;;;;;;4925837;28;22132;-65
2022/12/24 08:15:48;;;;;;;;;;;;;;;;;;4899377;28;19984;-67
2022/12/24 08:18:23;;;;;;;;;;;;;;;;;;4974809;28;19926;-67
2022/12/24 08:20:53;;;;;;;;;;;;;;;;;;4970623;28;19926;-67
2022/12/24 08:23:20;;;;;;;;;;;;;;;;;;4922621;28;19926;-67
2022/12/24 08:25:46;;;;;;;;;;;;;;;;;;4963378;28;19923;-67
2022/12/24 08:28:11;;;;;;;;;;;;;;;;;;4984080;28;19989;-68
2022/12/24 08:30:36;;;;;;;;;;;;;;;;;;4918615;28;20315;-68
2022/12/24 08:33:04;;;;;;;;;;;;;;;;;;4973842;28;19930;-68
2022/12/24 08:35:32;;;;;;;;;;;;;;;;;;4903503;28;19926;-68
2022/12/24 08:38:00;;;;;;;;;;;;;;;;;;4986859;28;19945;-68
2022/12/24 08:40:25;;;;;;;;;;;;;;;;;;4924662;28;20389;-69
2022/12/24 08:42:51;;;;;;;;;;;;;;;;;;4919599;28;19918;-67
2022/12/24 08:45:16;;;;;;;;;;;;;;;;;;4924973;28;20356;-68
2022/12/24 08:47:41;;;;;;;;;;;;;;;;;;4917506;28;19965;-67
2022/12/24 08:50:07;;;;;;;;;;;;;;;;;;4921621;28;21616;-68
2022/12/24 08:52:35;;;;;;;;;;;;;;;;;;4975182;28;19966;-67
2022/12/24 08:55:03;;;;;;;;;;;;;;;;;;4987145;28;19934;-68
2022/12/24 08:57:28;;;;;;;;;;;;;;;;;;4918603;28;21509;-67
2022/12/24 08:59:53;;;;;;;;;;;;;;;;;;4922304;28;19918;-69
2022/12/24 09:02:19;;;;;;;;;;;;;;;;;;4987322;28;19923;-68
2022/12/24 09:04:47;;;;;;;;;;;;;;;;;;4919707;28;20596;-66
2022/12/24 09:07:12;;;;;;;;;;;;;;;;;;4920392;28;20296;-66
2022/12/24 09:09:38;;;;;;;;;;;;;;;;;;4975221;28;21004;-67
2022/12/24 09:12:03;;;;;;;;;;;;;;;;;;4988521;28;19926;-67
2022/12/24 09:14:33;;;;;;;;;;;;;;;;;;4965140;28;19930;-67
2022/12/24 09:16:59;;;;;;;;;;;;;;;;;;4986805;28;19926;-68
2022/12/24 09:19:27;;;;;;;;;;;;;;;;;;4921967;28;20366;-67
2022/12/24 09:21:55;;;;;;;;;;;;;;;;;;4920376;28;19946;-68
2022/12/24 09:24:20;;;;;;;;;;;;;;;;;;4986808;28;19993;-68
2022/12/24 09:26:48;;;;;;;;;;;;;;;;;;4920905;28;19922;-67
2022/12/24 09:29:18;;;;;;;;;;;;;;;;;;4920845;28;20027;-67
2022/12/24 09:31:43;;;;;;;;;;;;;;;;;;4908410;28;20690;-68
2022/12/24 09:34:08;;;;;;;;;;;;;;;;;;4971061;28;19929;-68
2022/12/24 09:36:36;;;;;;;;;;;;;;;;;;4918016;28;19922;-66
2022/12/24 09:39:02;;;;;;;;;;;;;;;;;;4921023;28;19922;-66
2022/12/24 09:41:29;;;;;;;;;;;;;;;;;;4922353;28;19929;-67
2022/12/24 09:43:55;;;;;;;;;;;;;;;;;;4920242;28;19922;-67
2022/12/24 09:46:20;;;;;;;;;;;;;;;;;;4907068;28;20405;-68
2022/12/24 09:48:48;;;;;;;;;;;;;;;;;;4909074;28;20364;-70
2022/12/24 09:51:15;;;;;;;;;;;;;;;;;;4920518;28;19918;-68
2022/12/24 09:53:43;;;;;;;;;;;;;;;;;;4918879;28;19997;-69
2022/12/24 09:56:08;;;;;;;;;;;;;;;;;;4908739;28;20222;-70
2022/12/24 09:58:36;;;;;;;;;;;;;;;;;;4920448;28;20301;-69
2022/12/24 10:01:04;;;;;;;;;;;;;;;;;;4907514;28;19923;-69
2022/12/24 10:03:30;;;;;;;;;;;;;;;;;;4905458;28;19923;-67
2022/12/24 10:05:55;;;;;;;;;;;;;;;;;;4968373;28;20305;-69
2022/12/24 10:08:20;;;;;;;;;;;;;;;;;;4971481;28;20155;-67
2022/12/24 10:10:46;;;;;;;;;;;;;;;;;;4921809;28;19979;-68
2022/12/24 10:13:13;;;;;;;;;;;;;;;;;;4967292;28;19919;-68
2022/12/24 10:15:41;;;;;;;;;;;;;;;;;;4919981;28;20021;-66
2022/12/24 10:18:07;;;;;;;;;;;;;;;;;;4919104;28;19931;-70
2022/12/24 10:20:35;;;;;;;;;;;;;;;;;;4987936;28;20179;-68
2022/12/24 10:23:05;;;;;;;;;;;;;;;;;;4921511;28;19931;-68
2022/12/24 10:25:33;;;;;;;;;;;;;;;;;;4921891;28;19941;-68
2022/12/24 10:27:58;;;;;;;;;;;;;;;;;;4923258;28;20278;-68
2022/12/24 10:30:27;;;;;;;;;;;;;;;;;;4918156;28;20544;-70
2022/12/24 10:32:53;;;;;;;;;;;;;;;;;;4919110;28;19930;-70
2022/12/24 10:35:18;;;;;;;;;;;;;;;;;;4968060;28;19953;-69
2022/12/24 10:37:46;;;;;;;;;;;;;;;;;;4904053;28;19932;-73
2022/12/24 10:40:13;;;;;;;;;;;;;;;;;;4917644;28;20374;-70
2022/12/24 10:42:44;;;;;;;;;;;;;;;;;;4902781;28;20492;-70
2022/12/24 10:45:09;;;;;;;;;;;;;;;;;;4912734;28;19923;-68
2022/12/24 10:47:36;;;;;;;;;;;;;;;;;;4922596;28;19928;-69
2022/12/24 10:50:02;;;;;;;;;;;;;;;;;;4987944;28;19923;-71
2022/12/24 10:52:28;;;;;;;;;;;;;;;;;;4920531;28;19926;-72
2022/12/24 10:54:56;;;;;;;;;;;;;;;;;;4920885;28;20573;-70
2022/12/24 10:57:23;;;;;;;;;;;;;;;;;;4896830;28;19941;-70
2022/12/24 10:59:58;;;;;;;;;;;;;;;;;;4915137;28;20161;-74
2022/12/24 11:02:27;;;;;;;;;;;;;;;;;;4917187;28;20017;-71
2022/12/24 11:04:55;;;;;;;;;;;;;;;;;;4897736;28;19919;-72
2022/12/24 11:07:20;;;;;;;;;;;;;;;;;;4987504;28;20023;-71
2022/12/24 11:09:46;;;;;;;;;;;;;;;;;;4920683;28;20365;-71
2022/12/24 11:12:11;;;;;;;;;;;;;;;;;;4915008;28;20007;-75
2022/12/24 11:14:39;;;;;;;;;;;;;;;;;;4969877;28;20434;-74
2022/12/24 11:17:05;;;;;;;;;;;;;;;;;;4905926;28;20593;-73
2022/12/24 11:19:30;;;;;;;;;;;;;;;;;;4899206;28;19926;-72
2022/12/24 11:21:56;;;;;;;;;;;;;;;;;;4919817;28;19926;-73
2022/12/24 11:24:24;;;;;;;;;;;;;;;;;;4923040;28;19980;-73
2022/12/24 11:26:49;;;;;;;;;;;;;;;;;;4970677;28;19929;-73
2022/12/24 11:29:14;;;;;;;;;;;;;;;;;;4918421;28;19918;-74
2022/12/24 11:31:40;;;;;;;;;;;;;;;;;;4920656;28;19928;-70
2022/12/24 11:34:05;;;;;;;;;;;;;;;;;;4917373;28;19932;-72
2022/12/24 11:36:33;;;;;;;;;;;;;;;;;;4906708;28;19927;-75
2022/12/24 11:39:00;;;;;;;;;;;;;;;;;;4921249;28;19933;-74
2022/12/24 11:41:30;;;;;;;;;;;;;;;;;;4978306;28;20275;-77
2022/12/24 11:43:59;;;;;;;;;;;;;;;;;;4979592;28;19975;-76
2022/12/24 11:46:27;;;;;;;;;;;;;;;;;;4922655;28;19922;-75
2022/12/24 11:48:55;;;;;;;;;;;;;;;;;;4978974;28;19922;-75
2022/12/24 11:51:21;;;;;;;;;;;;;;;;;;4922846;28;20305;-74
2022/12/24 11:53:46;;;;;;;;;;;;;;;;;;4923239;28;20494;-75
2022/12/24 11:56:11;;;;;;;;;;;;;;;;;;4924017;28;19929;-76
2022/12/24 11:58:37;;;;;;;;;;;;;;;;;;4909506;28;19938;-75
2022/12/24 12:01:02;;;;;;;;;;;;;;;;;;4987965;28;19918;-77
2022/12/24 12:03:32;;;;;;;;;;;;;;;;;;4972923;28;19976;-79
2022/12/24 12:05:57;;;;;;;;;;;;;;;;;;4921979;28;20522;-76
2022/12/24 12:08:27;;;;;;;;;;;;;;;;;;4922875;28;19930;-76
2022/12/24 12:10:52;;;;;;;;;;;;;;;;;;4970029;28;19971;-77
2022/12/24 12:13:22;;;;;;;;;;;;;;;;;;4922032;28;20342;-73
2022/12/24 12:15:50;;;;;;;;;;;;;;;;;;4979953;28;19923;-72
2022/12/24 12:18:16;;;;;;;;;;;;;;;;;;4924588;28;20029;-76
2022/12/24 12:20:42;;;;;;;;;;;;;;;;;;4979534;28;19929;-70
2022/12/24 12:23:10;;;;;;;;;;;;;;;;;;4908963;28;19933;-77
2022/12/24 12:25:35;;;;;;;;;;;;;;;;;;4990643;28;20297;-78
2022/12/24 12:28:01;;;;;;;;;;;;;;;;;;4905296;28;20069;-73
2022/12/24 12:30:29;;;;;;;;;;;;;;;;;;4978224;28;19922;-77
2022/12/24 12:32:57;;;;;;;;;;;;;;;;;;4926601;28;19940;-79
2022/12/24 12:35:23;;;;;;;;;;;;;;;;;;4978766;28;19918;-72
2022/12/24 12:37:48;;;;;;;;;;;;;;;;;;4972159;28;19961;-73
2022/12/24 12:40:14;;;;;;;;;;;;;;;;;;4921055;28;19928;-77
2022/12/24 12:42:41;;;;;;;;;;;;;;;;;;4923699;28;20111;-73
2022/12/24 12:45:07;;;;;;;;;;;;;;;;;;4991035;28;19925;-77
2022/12/24 12:47:32;;;;;;;;;;;;;;;;;;4922521;28;20113;-77
2022/12/24 12:49:57;;;;;;;;;;;;;;;;;;4987403;28;19958;-74
2022/12/24 12:52:25;;;;;;;;;;;;;;;;;;4989405;28;20448;-79
2022/12/24 12:54:50;;;;;;;;;;;;;;;;;;4922446;28;19971;-76
2022/12/24 12:57:19;;;;;;;;;;;;;;;;;;4934390;28;21999;-75
2022/12/24 12:59:44;;;;;;;;;;;;;;;;;;4923080;28;19933;-74
2022/12/24 13:02:12;;;;;;;;;;;;;;;;;;4921740;28;20318;-73
2022/12/24 13:04:37;;;;;;;;;;;;;;;;;;4990577;28;19964;-75
2022/12/24 13:07:05;;;;;;;;;;;;;;;;;;4922126;28;20298;-74
2022/12/24 13:09:31;;;;;;;;;;;;;;;;;;4991204;28;20301;-73
2022/12/24 13:11:59;;;;;;;;;;;;;;;;;;4923159;28;20279;-71
2022/12/24 13:14:24;;;;;;;;;;;;;;;;;;4990720;28;19929;-78
2022/12/24 13:16:50;;;;;;;;;;;;;;;;;;4922911;28;19919;-69
2022/12/24 13:19:16;;;;;;;;;;;;;;;;;;4916572;28;19927;-72
2022/12/24 13:21:41;;;;;;;;;;;;;;;;;;4923501;28;19962;-74
2022/12/24 13:24:06;;;;;;;;;;;;;;;;;;4924953;28;19922;-74
2022/12/24 13:26:32;;;;;;;;;;;;;;;;;;4922516;28;19945;-74
2022/12/24 13:29:00;;;;;;;;;;;;;;;;;;4924636;28;19925;-75
2022/12/24 13:31:27;;;;;;;;;;;;;;;;;;4924370;28;19928;-79
2022/12/24 13:33:53;;;;;;;;;;;;;;;;;;4920537;28;20755;-73
2022/12/24 13:36:18;;;;;;;;;;;;;;;;;;4921736;28;19918;-71
2022/12/24 13:38:44;;;;;;;;;;;;;;;;;;4973736;28;19949;-78
2022/12/24 13:41:10;;;;;;;;;;;;;;;;;;4921600;28;19932;-78
2022/12/24 13:43:35;;;;;;;;;;;;;;;;;;4909032;28;19926;-72
2022/12/24 13:46:02;;;;;;;;;;;;;;;;;;4921208;28;19924;-71
2022/12/24 13:48:29;;;;;;;;;;;;;;;;;;4923389;28;20009;-69
2022/12/24 13:50:57;;;;;;;;;;;;;;;;;;4906737;28;19941;-73
2022/12/24 13:53:28;;;;;;;;;;;;;;;;;;4914202;28;19918;-72
2022/12/24 13:55:56;;;;;;;;;;;;;;;;;;4984190;28;19934;-73
2022/12/24 13:58:21;;;;;;;;;;;;;;;;;;4920231;28;19923;-72
2022/12/24 14:00:47;;;;;;;;;;;;;;;;;;4916460;28;19922;-70
2022/12/24 14:03:12;;;;;;;;;;;;;;;;;;4907039;28;20294;-72
2022/12/24 14:05:38;;;;;;;;;;;;;;;;;;4923023;28;20607;-75
2022/12/24 14:08:03;;;;;;;;;;;;;;;;;;4987605;28;19929;-77
2022/12/24 14:10:29;;;;;;;;;;;;;;;;;;4895305;28;19926;-73
2022/12/24 14:12:55;;;;;;;;;;;;;;;;;;4920467;28;20083;-71
2022/12/24 14:15:23;;;;;;;;;;;;;;;;;;4920778;28;19919;-72
2022/12/24 14:17:53;;;;;;;;;;;;;;;;;;4919911;28;19968;-71
2022/12/24 14:20:18;;;;;;;;;;;;;;;;;;4923769;28;19944;-72
2022/12/24 14:22:43;;;;;;;;;;;;;;;;;;4922601;28;19922;-73
2022/12/24 14:25:09;;;;;;;;;;;;;;;;;;4921783;28;20003;-70
2022/12/24 14:27:34;;;;;;;;;;;;;;;;;;4905655;28;20030;-75
2022/12/24 14:30:02;;;;;;;;;;;;;;;;;;4915804;28;19923;-75
2022/12/24 14:32:29;;;;;;;;;;;;;;;;;;4968199;28;19931;-74
2022/12/24 14:34:57;;;;;;;;;;;;;;;;;;4982553;28;20140;-75
2022/12/24 14:37:25;;;;;;;;;;;;;;;;;;4920572;28;20285;-76
2022/12/24 14:39:55;;;;;;;;;;;;;;;;;;4923153;28;19975;-71
2022/12/24 14:42:23;;;;;;;;;;;;;;;;;;4918026;28;19918;-75
2022/12/24 14:44:48;;;;;;;;;;;;;;;;;;4984715;28;19926;-73
2022/12/24 14:47:19;;;;;;;;;;;;;;;;;;4918915;28;19923;-75
2022/12/24 14:49:46;;;;;;;;;;;;;;;;;;4920239;28;20385;-76
2022/12/24 14:52:15;;;;;;;;;;;;;;;;;;4906427;28;20025;-76
2022/12/24 14:54:40;;;;;;;;;;;;;;;;;;4987030;28;19922;-74
2022/12/24 14:57:07;;;;;;;;;;;;;;;;;;4919712;28;20363;-76
2022/12/24 14:59:33;;;;;;;;;;;;;;;;;;4920346;28;19927;-73
2022/12/24 15:01:58;;;;;;;;;;;;;;;;;;4970859;28;19934;-73
2022/12/24 15:04:23;;;;;;;;;;;;;;;;;;4971503;28;19943;-74
2022/12/24 15:06:49;;;;;;;;;;;;;;;;;;4969501;28;20078;-76
2022/12/24 15:09:15;;;;;;;;;;;;;;;;;;4915143;28;20352;-76
2022/12/24 15:11:43;;;;;;;;;;;;;;;;;;4921074;28;20476;-76
2022/12/24 15:14:09;;;;;;;;;;;;;;;;;;4923300;28;19933;-74
2022/12/24 15:16:36;;;;;;;;;;;;;;;;;;4924260;28;19922;-74
2022/12/24 15:19:02;;;;;;;;;;;;;;;;;;4924815;28;20006;-73
2022/12/24 15:21:27;;;;;;;;;;;;;;;;;;4923310;28;20273;-77
2022/12/24 15:23:55;;;;;;;;;;;;;;;;;;4923591;28;19949;-76
2022/12/24 15:26:20;;;;;;;;;;;;;;;;;;4910684;28;19923;-75
2022/12/24 15:28:45;;;;;;;;;;;;;;;;;;4917494;28;19964;-74
2022/12/24 15:31:15;;;;;;;;;;;;;;;;;;4923919;28;19926;-75
2022/12/24 15:33:43;;;;;;;;;;;;;;;;;;4918128;28;19933;-75
2022/12/24 15:36:08;;;;;;;;;;;;;;;;;;4895988;28;20009;-76
2022/12/24 15:38:34;;;;;;;;;;;;;;;;;;4904360;28;19945;-75
2022/12/24 15:41:02;;;;;;;;;;;;;;;;;;4911988;28;19923;-76
2022/12/24 15:43:29;;;;;;;;;;;;;;;;;;4904582;28;20425;-75
2022/12/24 15:45:55;;;;;;;;;;;;;;;;;;4906549;28;19922;-74
2022/12/24 15:48:22;;;;;;;;;;;;;;;;;;4905588;28;20000;-74
2022/12/24 15:50:51;;;;;;;;;;;;;;;;;;4904753;28;19923;-74
2022/12/24 15:53:17;;;;;;;;;;;;;;;;;;4905188;28;19926;-75
2022/12/24 15:55:44;;;;;;;;;;;;;;;;;;4903722;28;19963;-74
2022/12/24 15:58:10;;;;;;;;;;;;;;;;;;4911163;28;19930;-75
2022/12/24 16:00:35;;;;;;;;;;;;;;;;;;4974503;28;20123;-76
2022/12/24 16:03:00;;;;;;;;;;;;;;;;;;4965341;28;19927;-74
2022/12/24 16:05:28;;;;;;;;;;;;;;;;;;4915679;28;20332;-76
2022/12/24 16:08:08;;;;;;;;;;;;;;;;;;4910324;28;19934;-75
2022/12/24 16:10:37;;;;;;;;;;;;;;;;;;4900225;28;20383;-75
2022/12/24 16:13:05;;;;;;;;;;;;;;;;;;4902533;28;19919;-76
2022/12/24 16:15:36;;;;;;;;;;;;;;;;;;4907230;28;19919;-74
2022/12/24 16:18:04;;;;;;;;;;;;;;;;;;4902115;28;19933;-74
2022/12/24 16:20:29;;;;;;;;;;;;;;;;;;4906782;28;20017;-75
2022/12/24 16:22:57;;;;;;;;;;;;;;;;;;4903599;28;20481;-75
2022/12/24 16:25:24;;;;;;;;;;;;;;;;;;4898704;28;20107;-74
2022/12/24 16:27:52;;;;;;;;;;;;;;;;;;4898307;28;19927;-75
2022/12/24 16:30:21;;;;;;;;;;;;;;;;;;4894505;28;19984;-73
2022/12/24 16:32:49;;;;;;;;;;;;;;;;;;4913346;28;19938;-73
2022/12/24 16:35:17;;;;;;;;;;;;;;;;;;4914699;28;20010;-76
2022/12/24 16:37:45;;;;;;;;;;;;;;;;;;4900795;28;20632;-74
2022/12/24 16:40:10;;;;;;;;;;;;;;;;;;4901962;28;19929;-75
2022/12/24 16:45:24;;;;;;;;;;;;;;;;;;4919155;28;19923;-74
2022/12/24 16:47:50;;;;;;;;;;;;;;;;;;4903667;28;20298;-72
2022/12/24 16:50:21;;;;;;;;;;;;;;;;;;4905138;28;19922;-74
2022/12/24 16:52:46;;;;;;;;;;;;;;;;;;4902414;28;19922;-74
2022/12/24 16:55:14;;;;;;;;;;;;;;;;;;4917160;28;21258;-74
2022/12/24 16:57:41;;;;;;;;;;;;;;;;;;4901822;28;20054;-74